sensor_id;sensor_type;location;lat;lon;timestamp;P1;durP1;ratioP1;P2;durP2;ratioP2
42802;SDS011;28447;48.682;9.022;2024-01-15T05:02:56;26.97;;;10.37;;
42802;SDS011;28447;48.682;9.022;2024-01-15T05:05:22;19.60;;;10.03;;
42802;SDS011;28447;48.682;9.022;2024-01-15T05:07:49;25.37;;;11.50;;
42802;SDS011;28447;48.682;9.022;2024-01-15T05:10:15;27.27;;;10.57;;
42802;SDS011;28447;48.682;9.022;2024-01-15T05:12:41;22.90;;;10.03;;
42802;SDS011;28447;48.682;9.022;2024-01-15T05:15:07;29.50;;;11.27;;
42802;SDS011;28447;48.682;9.022;2024-01-15T05:17:34;24.73;;;10.40;;
42802;SDS011;28447;48.682;9.022;2024-01-15T05:20:00;19.47;;;9.30;;
42802;SDS011;28447;48.682;9.022;2024-01-15T05:22:26;32.53;;;11.20;;
42802;SDS011;28447;48.682;9.022;2024-01-15T05:24:52;30.13;;;10.30;;
42802;SDS011;28447;48.682;9.022;2024-01-15T05:27:18;22.83;;;10.00;;
42802;SDS011;28447;48.682;9.022;2024-01-15T05:29:44;20.10;;;9.77;;
42802;SDS011;28447;48.682;9.022;2024-01-15T05:32:10;24.63;;;10.27;;
42802;SDS011;28447;48.682;9.022;2024-01-15T05:34:36;19.57;;;9.97;;
42802;SDS011;28447;48.682;9.022;2024-01-15T05:37:02;25.53;;;11.10;;
42802;SDS011;28447;48.682;9.022;2024-01-15T05:39:28;19.20;;;8.97;;
42802;SDS011;28447;48.682;9.022;2024-01-15T05:41:54;18.53;;;10.40;;
42802;SDS011;28447;48.682;9.022;2024-01-15T05:44:20;25.33;;;9.60;;
42802;SDS011;28447;48.682;9.022;2024-01-15T05:46:46;21.77;;;9.60;;
42802;SDS011;28447;48.682;9.022;2024-01-15T05:49:12;22.17;;;10.20;;
42802;SDS011;28447;48.682;9.022;2024-01-15T05:51:39;18.07;;;8.77;;
42802;SDS011;28447;48.682;9.022;2024-01-15T05:54:05;15.20;;;8.40;;
42802;SDS011;28447;48.682;9.022;2024-01-15T05:56:31;20.50;;;9.93;;
42802;SDS011;28447;48.682;9.022;2024-01-15T05:58:57;23.90;;;11.53;;
42802;SDS011;28447;48.682;9.022;2024-01-15T06:01:23;20.80;;;9.30;;
42802;SDS011;28447;48.682;9.022;2024-01-15T06:03:49;20.00;;;9.80;;
42802;SDS011;28447;48.682;9.022;2024-01-15T06:06:15;19.33;;;9.40;;
42802;SDS011;28447;48.682;9.022;2024-01-15T06:08:41;21.60;;;9.67;;
42802;SDS011;28447;48.682;9.022;2024-01-15T06:11:07;23.00;;;10.03;;
42802;SDS011;28447;48.682;9.022;2024-01-15T06:13:33;16.73;;;8.40;;
42802;SDS011;28447;48.682;9.022;2024-01-15T06:15:59;22.60;;;9.23;;
42802;SDS011;28447;48.682;9.022;2024-01-15T06:18:25;23.90;;;9.53;;
42802;SDS011;28447;48.682;9.022;2024-01-15T06:20:51;17.27;;;9.20;;
42802;SDS011;28447;48.682;9.022;2024-01-15T06:23:17;25.47;;;10.40;;
42802;SDS011;28447;48.682;9.022;2024-01-15T06:25:43;20.23;;;7.23;;
42802;SDS011;28447;48.682;9.022;2024-01-15T06:28:09;23.30;;;9.57;;
42802;SDS011;28447;48.682;9.022;2024-01-15T06:30:35;24.40;;;9.70;;
42802;SDS011;28447;48.682;9.022;2024-01-15T06:33:01;23.70;;;9.50;;
42802;SDS011;28447;48.682;9.022;2024-01-15T06:35:27;21.00;;;10.20;;
42802;SDS011;28447;48.682;9.022;2024-01-15T06:37:53;16.80;;;8.73;;
42802;SDS011;28447;48.682;9.022;2024-01-15T06:40:19;19.53;;;9.80;;
42802;SDS011;28447;48.682;9.022;2024-01-15T06:42:45;17.37;;;10.10;;
42802;SDS011;28447;48.682;9.022;2024-01-15T06:45:11;15.33;;;7.83;;
42802;SDS011;28447;48.682;9.022;2024-01-15T06:47:37;21.60;;;10.67;;
42802;SDS011;28447;48.682;9.022;2024-01-15T06:50:04;20.87;;;9.50;;
42802;SDS011;28447;48.682;9.022;2024-01-15T06:52:31;20.43;;;11.83;;
42802;SDS011;28447;48.682;9.022;2024-01-15T06:54:57;22.27;;;12.40;;
42802;SDS011;28447;48.682;9.022;2024-01-15T06:57:23;23.83;;;11.73;;
42802;SDS011;28447;48.682;9.022;2024-01-15T06:59:49;22.23;;;9.87;;
42802;SDS011;28447;48.682;9.022;2024-01-15T07:02:15;24.43;;;10.50;;
42802;SDS011;28447;48.682;9.022;2024-01-15T07:04:41;26.57;;;12.00;;
42802;SDS011;28447;48.682;9.022;2024-01-15T07:07:07;25.37;;;11.10;;
42802;SDS011;28447;48.682;9.022;2024-01-15T07:09:33;22.60;;;10.33;;
42802;SDS011;28447;48.682;9.022;2024-01-15T07:11:59;22.23;;;10.83;;
42802;SDS011;28447;48.682;9.022;2024-01-15T07:14:25;19.50;;;9.87;;
42802;SDS011;28447;48.682;9.022;2024-01-15T07:16:51;23.20;;;10.70;;
42802;SDS011;28447;48.682;9.022;2024-01-15T07:19:17;23.53;;;8.27;;
42802;SDS011;28447;48.682;9.022;2024-01-15T07:21:43;18.73;;;9.10;;
42802;SDS011;28447;48.682;9.022;2024-01-15T07:24:09;20.77;;;10.97;;
42802;SDS011;28447;48.682;9.022;2024-01-15T07:26:35;16.77;;;8.57;;
42802;SDS011;28447;48.682;9.022;2024-01-15T07:29:01;13.27;;;6.50;;
42802;SDS011;28447;48.682;9.022;2024-01-15T07:31:28;21.10;;;9.10;;
42802;SDS011;28447;48.682;9.022;2024-01-15T07:33:54;23.30;;;10.10;;
42802;SDS011;28447;48.682;9.022;2024-01-15T07:36:20;20.10;;;9.03;;
42802;SDS011;28447;48.682;9.022;2024-01-15T07:38:46;18.70;;;9.90;;
42802;SDS011;28447;48.682;9.022;2024-01-15T07:41:13;18.43;;;8.77;;
42802;SDS011;28447;48.682;9.022;2024-01-15T07:43:39;18.57;;;8.00;;
42802;SDS011;28447;48.682;9.022;2024-01-15T07:46:05;22.30;;;10.80;;
42802;SDS011;28447;48.682;9.022;2024-01-15T07:48:32;22.20;;;9.57;;
42802;SDS011;28447;48.682;9.022;2024-01-15T07:50:58;22.60;;;9.00;;
42802;SDS011;28447;48.682;9.022;2024-01-15T07:53:24;16.73;;;7.77;;
42802;SDS011;28447;48.682;9.022;2024-01-15T07:55:50;26.30;;;8.20;;
42802;SDS011;28447;48.682;9.022;2024-01-15T07:58:16;16.00;;;7.43;;
42802;SDS011;28447;48.682;9.022;2024-01-15T08:00:42;17.83;;;8.67;;
42802;SDS011;28447;48.682;9.022;2024-01-15T08:03:08;19.73;;;8.10;;
42802;SDS011;28447;48.682;9.022;2024-01-15T08:05:34;24.03;;;9.20;;
42802;SDS011;28447;48.682;9.022;2024-01-15T08:08:00;20.30;;;9.47;;
42802;SDS011;28447;48.682;9.022;2024-01-15T08:10:26;16.53;;;8.93;;
42802;SDS011;28447;48.682;9.022;2024-01-15T08:12:52;14.37;;;8.10;;
42802;SDS011;28447;48.682;9.022;2024-01-15T08:15:18;18.80;;;8.20;;
42802;SDS011;28447;48.682;9.022;2024-01-15T08:17:44;27.00;;;9.33;;
42802;SDS011;28447;48.682;9.022;2024-01-15T08:20:10;20.20;;;8.07;;
42802;SDS011;28447;48.682;9.022;2024-01-15T08:22:36;13.20;;;6.93;;
42802;SDS011;28447;48.682;9.022;2024-01-15T08:25:04;22.30;;;10.57;;
42802;SDS011;28447;48.682;9.022;2024-01-15T08:27:30;18.63;;;8.53;;
42802;SDS011;28447;48.682;9.022;2024-01-15T08:29:56;18.10;;;8.33;;
42802;SDS011;28447;48.682;9.022;2024-01-15T08:32:22;18.23;;;9.20;;
42802;SDS011;28447;48.682;9.022;2024-01-15T08:34:48;15.33;;;7.57;;
42802;SDS011;28447;48.682;9.022;2024-01-15T08:37:17;15.37;;;8.20;;
42802;SDS011;28447;48.682;9.022;2024-01-15T08:39:43;17.23;;;7.70;;
42802;SDS011;28447;48.682;9.022;2024-01-15T08:42:09;15.60;;;8.20;;
42802;SDS011;28447;48.682;9.022;2024-01-15T08:44:36;14.60;;;7.23;;
42802;SDS011;28447;48.682;9.022;2024-01-15T08:47:04;14.40;;;6.57;;
42802;SDS011;28447;48.682;9.022;2024-01-15T08:49:30;11.93;;;6.60;;
42802;SDS011;28447;48.682;9.022;2024-01-15T08:51:57;15.33;;;6.30;;
42802;SDS011;28447;48.682;9.022;2024-01-15T08:54:23;10.60;;;5.70;;
42802;SDS011;28447;48.682;9.022;2024-01-15T08:56:49;9.57;;;6.00;;
42802;SDS011;28447;48.682;9.022;2024-01-15T08:59:15;13.10;;;6.27;;
42802;SDS011;28447;48.682;9.022;2024-01-15T09:01:41;12.60;;;6.60;;
42802;SDS011;28447;48.682;9.022;2024-01-15T09:04:07;16.80;;;8.37;;
42802;SDS011;28447;48.682;9.022;2024-01-15T09:06:33;12.67;;;5.67;;
42802;SDS011;28447;48.682;9.022;2024-01-15T09:08:59;13.40;;;6.83;;
42802;SDS011;28447;48.682;9.022;2024-01-15T09:11:25;14.17;;;6.57;;
42802;SDS011;28447;48.682;9.022;2024-01-15T09:13:51;15.07;;;7.10;;
42802;SDS011;28447;48.682;9.022;2024-01-15T09:16:17;15.67;;;7.40;;
42802;SDS011;28447;48.682;9.022;2024-01-15T09:18:44;16.83;;;7.40;;
42802;SDS011;28447;48.682;9.022;2024-01-15T09:21:11;12.17;;;5.80;;
42802;SDS011;28447;48.682;9.022;2024-01-15T09:23:38;11.00;;;6.10;;
42802;SDS011;28447;48.682;9.022;2024-01-15T09:26:04;11.00;;;6.27;;
42802;SDS011;28447;48.682;9.022;2024-01-15T09:28:30;12.87;;;6.20;;
42802;SDS011;28447;48.682;9.022;2024-01-15T09:30:56;15.73;;;6.10;;
42802;SDS011;28447;48.682;9.022;2024-01-15T09:33:22;8.17;;;4.83;;
42802;SDS011;28447;48.682;9.022;2024-01-15T09:35:48;14.07;;;5.70;;
42802;SDS011;28447;48.682;9.022;2024-01-15T09:38:14;13.77;;;6.70;;
42802;SDS011;28447;48.682;9.022;2024-01-15T09:40:40;12.87;;;6.07;;
42802;SDS011;28447;48.682;9.022;2024-01-15T09:43:08;10.03;;;5.83;;
42802;SDS011;28447;48.682;9.022;2024-01-15T09:45:34;11.10;;;6.00;;
42802;SDS011;28447;48.682;9.022;2024-01-15T09:48:01;13.70;;;6.50;;
42802;SDS011;28447;48.682;9.022;2024-01-15T09:50:27;12.27;;;5.30;;
42802;SDS011;28447;48.682;9.022;2024-01-15T09:52:53;11.00;;;6.17;;
42802;SDS011;28447;48.682;9.022;2024-01-15T09:55:22;12.03;;;6.23;;
42802;SDS011;28447;48.682;9.022;2024-01-15T09:57:48;9.17;;;5.63;;
42802;SDS011;28447;48.682;9.022;2024-01-15T10:00:18;14.97;;;6.20;;
42802;SDS011;28447;48.682;9.022;2024-01-15T10:02:44;11.57;;;6.33;;
42802;SDS011;28447;48.682;9.022;2024-01-15T10:05:10;11.63;;;5.87;;
42802;SDS011;28447;48.682;9.022;2024-01-15T10:07:37;16.80;;;6.60;;
42802;SDS011;28447;48.682;9.022;2024-01-15T10:10:04;14.27;;;6.20;;
42802;SDS011;28447;48.682;9.022;2024-01-15T10:12:32;18.10;;;5.60;;
42802;SDS011;28447;48.682;9.022;2024-01-15T10:14:58;13.53;;;6.47;;
42802;SDS011;28447;48.682;9.022;2024-01-15T10:17:24;9.13;;;4.53;;
42802;SDS011;28447;48.682;9.022;2024-01-15T10:19:53;13.30;;;5.70;;
42802;SDS011;28447;48.682;9.022;2024-01-15T10:22:19;10.27;;;6.57;;
42802;SDS011;28447;48.682;9.022;2024-01-15T10:24:45;14.20;;;6.70;;
42802;SDS011;28447;48.682;9.022;2024-01-15T10:27:12;10.53;;;5.40;;
42802;SDS011;28447;48.682;9.022;2024-01-15T10:29:38;9.00;;;5.77;;
42802;SDS011;28447;48.682;9.022;2024-01-15T10:32:07;13.17;;;6.40;;
42802;SDS011;28447;48.682;9.022;2024-01-15T10:34:36;14.33;;;6.67;;
42802;SDS011;28447;48.682;9.022;2024-01-15T10:37:03;12.77;;;6.60;;
42802;SDS011;28447;48.682;9.022;2024-01-15T10:39:29;14.77;;;6.50;;
42802;SDS011;28447;48.682;9.022;2024-01-15T10:41:55;15.27;;;7.00;;
42802;SDS011;28447;48.682;9.022;2024-01-15T10:44:21;16.57;;;6.57;;
42802;SDS011;28447;48.682;9.022;2024-01-15T10:46:47;16.13;;;6.57;;
42802;SDS011;28447;48.682;9.022;2024-01-15T10:49:13;16.30;;;6.77;;
42802;SDS011;28447;48.682;9.022;2024-01-15T10:51:40;13.80;;;6.83;;
42802;SDS011;28447;48.682;9.022;2024-01-15T10:54:08;11.27;;;6.40;;
42802;SDS011;28447;48.682;9.022;2024-01-15T10:56:36;12.80;;;7.00;;
42802;SDS011;28447;48.682;9.022;2024-01-15T10:59:03;12.03;;;5.63;;
42802;SDS011;28447;48.682;9.022;2024-01-15T11:01:30;14.57;;;6.67;;
42802;SDS011;28447;48.682;9.022;2024-01-15T11:03:56;15.20;;;5.97;;
42802;SDS011;28447;48.682;9.022;2024-01-15T11:06:23;9.80;;;6.00;;
42802;SDS011;28447;48.682;9.022;2024-01-15T11:08:50;10.17;;;5.60;;
42802;SDS011;28447;48.682;9.022;2024-01-15T11:11:17;12.90;;;6.50;;
42802;SDS011;28447;48.682;9.022;2024-01-15T11:13:45;13.83;;;5.97;;
42802;SDS011;28447;48.682;9.022;2024-01-15T11:16:14;11.13;;;6.20;;
42802;SDS011;28447;48.682;9.022;2024-01-15T11:18:42;13.07;;;6.60;;
42802;SDS011;28447;48.682;9.022;2024-01-15T11:23:47;11.50;;;7.00;;
42802;SDS011;28447;48.682;9.022;2024-01-15T11:28:59;13.03;;;7.50;;
42802;SDS011;28447;48.682;9.022;2024-01-15T11:32:26;14.47;;;8.60;;
42802;SDS011;28447;48.682;9.022;2024-01-15T11:34:21;13.23;;;6.83;;
42802;SDS011;28447;48.682;9.022;2024-01-15T11:41:58;15.53;;;8.63;;
42802;SDS011;28447;48.682;9.022;2024-01-15T11:44:25;10.23;;;6.90;;
42802;SDS011;28447;48.682;9.022;2024-01-15T11:46:58;12.67;;;6.80;;
42802;SDS011;28447;48.682;9.022;2024-01-15T11:52:08;12.13;;;6.80;;
42802;SDS011;28447;48.682;9.022;2024-01-15T11:54:37;16.00;;;7.30;;
42802;SDS011;28447;48.682;9.022;2024-01-15T11:57:04;18.03;;;8.00;;
42802;SDS011;28447;48.682;9.022;2024-01-15T11:59:33;12.67;;;7.07;;
42802;SDS011;28447;48.682;9.022;2024-01-15T12:01:59;16.27;;;7.23;;
42802;SDS011;28447;48.682;9.022;2024-01-15T12:04:26;12.97;;;7.43;;
42802;SDS011;28447;48.682;9.022;2024-01-15T12:06:52;11.33;;;6.60;;
42802;SDS011;28447;48.682;9.022;2024-01-15T12:09:21;17.33;;;7.57;;
42802;SDS011;28447;48.682;9.022;2024-01-15T12:11:49;13.50;;;6.97;;
42802;SDS011;28447;48.682;9.022;2024-01-15T12:14:16;13.60;;;6.97;;
42802;SDS011;28447;48.682;9.022;2024-01-15T12:16:42;14.03;;;8.70;;
42802;SDS011;28447;48.682;9.022;2024-01-15T12:19:08;13.83;;;7.73;;
42802;SDS011;28447;48.682;9.022;2024-01-15T12:21:35;16.80;;;8.30;;
42802;SDS011;28447;48.682;9.022;2024-01-15T12:24:01;20.20;;;8.50;;
42802;SDS011;28447;48.682;9.022;2024-01-15T12:26:27;15.10;;;7.90;;
42802;SDS011;28447;48.682;9.022;2024-01-15T12:28:53;19.43;;;9.40;;
42802;SDS011;28447;48.682;9.022;2024-01-15T12:31:20;13.60;;;8.03;;
42802;SDS011;28447;48.682;9.022;2024-01-15T12:33:46;14.20;;;7.90;;
42802;SDS011;28447;48.682;9.022;2024-01-15T12:36:13;12.50;;;6.50;;
42802;SDS011;28447;48.682;9.022;2024-01-15T12:38:39;13.47;;;8.07;;
42802;SDS011;28447;48.682;9.022;2024-01-15T12:41:05;14.10;;;7.93;;
42802;SDS011;28447;48.682;9.022;2024-01-15T12:43:31;17.67;;;7.93;;
42802;SDS011;28447;48.682;9.022;2024-01-15T12:45:57;16.20;;;7.33;;
42802;SDS011;28447;48.682;9.022;2024-01-15T12:48:23;16.57;;;7.23;;
42802;SDS011;28447;48.682;9.022;2024-01-15T12:50:49;13.57;;;6.93;;
42802;SDS011;28447;48.682;9.022;2024-01-15T12:53:17;17.03;;;7.33;;
42802;SDS011;28447;48.682;9.022;2024-01-15T12:55:43;14.00;;;6.87;;
42802;SDS011;28447;48.682;9.022;2024-01-15T12:58:09;12.73;;;7.10;;
42802;SDS011;28447;48.682;9.022;2024-01-15T13:00:35;17.67;;;8.20;;
42802;SDS011;28447;48.682;9.022;2024-01-15T13:03:01;14.97;;;7.53;;
42802;SDS011;28447;48.682;9.022;2024-01-15T13:05:28;16.73;;;7.23;;
42802;SDS011;28447;48.682;9.022;2024-01-15T13:07:55;17.30;;;9.30;;
42802;SDS011;28447;48.682;9.022;2024-01-15T13:10:21;18.60;;;8.83;;
42802;SDS011;28447;48.682;9.022;2024-01-15T13:12:47;15.67;;;8.43;;
42802;SDS011;28447;48.682;9.022;2024-01-15T13:15:13;16.30;;;8.10;;
42802;SDS011;28447;48.682;9.022;2024-01-15T13:17:39;17.00;;;7.90;;
42802;SDS011;28447;48.682;9.022;2024-01-15T13:20:06;15.07;;;8.03;;
42802;SDS011;28447;48.682;9.022;2024-01-15T13:22:33;17.97;;;8.10;;
42802;SDS011;28447;48.682;9.022;2024-01-15T13:24:59;14.67;;;7.57;;
42802;SDS011;28447;48.682;9.022;2024-01-15T13:27:25;15.90;;;7.80;;
42802;SDS011;28447;48.682;9.022;2024-01-15T13:29:51;14.63;;;7.07;;
42802;SDS011;28447;48.682;9.022;2024-01-15T13:32:25;17.37;;;7.83;;
42802;SDS011;28447;48.682;9.022;2024-01-15T13:34:55;12.60;;;7.40;;
42802;SDS011;28447;48.682;9.022;2024-01-15T13:37:21;11.70;;;6.70;;
42802;SDS011;28447;48.682;9.022;2024-01-15T13:39:49;12.37;;;5.90;;
42802;SDS011;28447;48.682;9.022;2024-01-15T13:42:17;12.23;;;6.03;;
42802;SDS011;28447;48.682;9.022;2024-01-15T13:44:43;10.33;;;6.20;;
42802;SDS011;28447;48.682;9.022;2024-01-15T13:47:09;10.83;;;5.80;;
42802;SDS011;28447;48.682;9.022;2024-01-15T13:49:35;12.60;;;6.90;;
42802;SDS011;28447;48.682;9.022;2024-01-15T13:52:02;10.93;;;6.20;;
42802;SDS011;28447;48.682;9.022;2024-01-15T13:54:31;8.57;;;5.90;;
42802;SDS011;28447;48.682;9.022;2024-01-15T13:56:57;13.10;;;6.73;;
42802;SDS011;28447;48.682;9.022;2024-01-15T13:59:24;13.27;;;5.30;;
42802;SDS011;28447;48.682;9.022;2024-01-15T14:01:50;10.13;;;6.23;;
42802;SDS011;28447;48.682;9.022;2024-01-15T14:04:16;10.77;;;5.87;;
42802;SDS011;28447;48.682;9.022;2024-01-15T14:06:42;11.53;;;5.77;;
42802;SDS011;28447;48.682;9.022;2024-01-15T14:09:08;20.27;;;5.37;;
42802;SDS011;28447;48.682;9.022;2024-01-15T14:11:35;12.80;;;6.70;;
42802;SDS011;28447;48.682;9.022;2024-01-15T14:14:02;12.87;;;6.53;;
42802;SDS011;28447;48.682;9.022;2024-01-15T14:16:28;15.40;;;6.93;;
42802;SDS011;28447;48.682;9.022;2024-01-15T14:18:54;11.93;;;7.13;;
42802;SDS011;28447;48.682;9.022;2024-01-15T14:21:20;10.70;;;6.03;;
42802;SDS011;28447;48.682;9.022;2024-01-15T14:23:46;15.00;;;6.60;;
42802;SDS011;28447;48.682;9.022;2024-01-15T14:26:12;14.50;;;6.77;;
42802;SDS011;28447;48.682;9.022;2024-01-15T14:28:38;11.23;;;6.00;;
42802;SDS011;28447;48.682;9.022;2024-01-15T14:31:04;10.97;;;6.50;;
42802;SDS011;28447;48.682;9.022;2024-01-15T14:33:33;12.90;;;6.20;;
42802;SDS011;28447;48.682;9.022;2024-01-15T14:35:59;11.33;;;5.97;;
42802;SDS011;28447;48.682;9.022;2024-01-15T14:38:25;12.30;;;6.27;;
42802;SDS011;28447;48.682;9.022;2024-01-15T14:40:51;13.43;;;6.70;;
42802;SDS011;28447;48.682;9.022;2024-01-15T14:43:17;8.10;;;4.47;;
42802;SDS011;28447;48.682;9.022;2024-01-15T14:45:45;9.77;;;5.10;;
42802;SDS011;28447;48.682;9.022;2024-01-15T14:48:11;6.73;;;4.60;;
42802;SDS011;28447;48.682;9.022;2024-01-15T14:50:38;11.50;;;7.20;;
42802;SDS011;28447;48.682;9.022;2024-01-15T14:53:05;10.80;;;6.00;;
42802;SDS011;28447;48.682;9.022;2024-01-15T14:55:31;9.33;;;5.53;;
42802;SDS011;28447;48.682;9.022;2024-01-15T14:57:57;11.57;;;5.10;;
42802;SDS011;28447;48.682;9.022;2024-01-15T15:00:23;10.87;;;5.87;;
42802;SDS011;28447;48.682;9.022;2024-01-15T15:02:49;8.53;;;6.17;;
42802;SDS011;28447;48.682;9.022;2024-01-15T15:05:15;16.90;;;6.40;;
42802;SDS011;28447;48.682;9.022;2024-01-15T15:07:42;13.30;;;6.70;;
42802;SDS011;28447;48.682;9.022;2024-01-15T15:10:08;9.40;;;6.43;;
42802;SDS011;28447;48.682;9.022;2024-01-15T15:12:36;11.43;;;7.20;;
42802;SDS011;28447;48.682;9.022;2024-01-15T15:15:02;14.90;;;7.03;;
42802;SDS011;28447;48.682;9.022;2024-01-15T15:17:28;12.80;;;7.07;;
42802;SDS011;28447;48.682;9.022;2024-01-15T15:19:54;10.47;;;6.00;;
42802;SDS011;28447;48.682;9.022;2024-01-15T15:22:20;10.67;;;6.57;;
42802;SDS011;28447;48.682;9.022;2024-01-15T15:24:46;11.10;;;6.80;;
42802;SDS011;28447;48.682;9.022;2024-01-15T15:27:12;12.43;;;7.20;;
42802;SDS011;28447;48.682;9.022;2024-01-15T15:29:38;9.97;;;5.80;;
42802;SDS011;28447;48.682;9.022;2024-01-15T15:32:04;11.53;;;6.80;;
42802;SDS011;28447;48.682;9.022;2024-01-15T15:34:30;13.03;;;6.87;;
42802;SDS011;28447;48.682;9.022;2024-01-15T15:36:56;10.30;;;6.00;;
42802;SDS011;28447;48.682;9.022;2024-01-15T15:39:22;10.40;;;6.50;;
42802;SDS011;28447;48.682;9.022;2024-01-15T15:41:48;13.93;;;7.40;;
42802;SDS011;28447;48.682;9.022;2024-01-15T15:44:15;11.23;;;6.00;;
42802;SDS011;28447;48.682;9.022;2024-01-15T15:46:42;11.43;;;6.77;;
42802;SDS011;28447;48.682;9.022;2024-01-15T15:49:08;10.77;;;6.20;;
42802;SDS011;28447;48.682;9.022;2024-01-15T15:51:34;13.53;;;6.87;;
42802;SDS011;28447;48.682;9.022;2024-01-15T15:54:00;13.93;;;7.73;;
42802;SDS011;28447;48.682;9.022;2024-01-15T15:56:27;15.63;;;8.13;;
42802;SDS011;28447;48.682;9.022;2024-01-15T15:58:53;16.20;;;6.60;;
42802;SDS011;28447;48.682;9.022;2024-01-15T16:01:19;11.90;;;6.50;;
42802;SDS011;28447;48.682;9.022;2024-01-15T16:03:45;12.03;;;6.57;;
42802;SDS011;28447;48.682;9.022;2024-01-15T16:06:11;9.57;;;6.60;;
42802;SDS011;28447;48.682;9.022;2024-01-15T16:08:38;12.77;;;7.03;;
42802;SDS011;28447;48.682;9.022;2024-01-15T16:11:04;10.33;;;5.77;;
42802;SDS011;28447;48.682;9.022;2024-01-15T16:13:30;9.63;;;5.60;;
42802;SDS011;28447;48.682;9.022;2024-01-15T16:15:56;11.07;;;6.00;;
42802;SDS011;28447;48.682;9.022;2024-01-15T16:18:22;10.17;;;5.80;;
42802;SDS011;28447;48.682;9.022;2024-01-15T16:20:48;9.57;;;5.67;;
42802;SDS011;28447;48.682;9.022;2024-01-15T16:23:14;8.70;;;5.40;;
42802;SDS011;28447;48.682;9.022;2024-01-15T16:25:40;9.43;;;5.50;;
42802;SDS011;28447;48.682;9.022;2024-01-15T16:28:06;12.30;;;6.10;;
42802;SDS011;28447;48.682;9.022;2024-01-15T16:30:33;10.30;;;6.40;;
42802;SDS011;28447;48.682;9.022;2024-01-15T16:32:59;12.13;;;7.40;;
42802;SDS011;28447;48.682;9.022;2024-01-15T16:35:25;9.70;;;6.43;;
42802;SDS011;28447;48.682;9.022;2024-01-15T16:37:51;11.83;;;6.23;;
42802;SDS011;28447;48.682;9.022;2024-01-15T16:40:17;12.10;;;6.03;;
42802;SDS011;28447;48.682;9.022;2024-01-15T16:42:43;9.17;;;5.90;;
42802;SDS011;28447;48.682;9.022;2024-01-15T16:45:13;9.50;;;6.17;;
42802;SDS011;28447;48.682;9.022;2024-01-15T16:47:39;8.70;;;5.73;;
42802;SDS011;28447;48.682;9.022;2024-01-15T16:50:05;10.27;;;6.83;;
42802;SDS011;28447;48.682;9.022;2024-01-15T16:52:31;11.80;;;7.10;;
42802;SDS011;28447;48.682;9.022;2024-01-15T16:54:57;13.60;;;6.33;;
42802;SDS011;28447;48.682;9.022;2024-01-15T16:57:24;9.70;;;5.57;;
42802;SDS011;28447;48.682;9.022;2024-01-15T16:59:50;11.13;;;6.20;;
42802;SDS011;28447;48.682;9.022;2024-01-15T17:02:16;11.03;;;6.17;;
42802;SDS011;28447;48.682;9.022;2024-01-15T17:04:42;11.50;;;7.57;;
42802;SDS011;28447;48.682;9.022;2024-01-15T17:07:08;12.70;;;7.70;;
42802;SDS011;28447;48.682;9.022;2024-01-15T17:09:34;9.23;;;6.20;;
42802;SDS011;28447;48.682;9.022;2024-01-15T17:12:01;14.53;;;8.53;;
42802;SDS011;28447;48.682;9.022;2024-01-15T17:14:27;10.43;;;6.17;;
42802;SDS011;28447;48.682;9.022;2024-01-15T17:16:53;10.20;;;6.97;;
42802;SDS011;28447;48.682;9.022;2024-01-15T17:19:20;10.53;;;6.53;;
42802;SDS011;28447;48.682;9.022;2024-01-15T17:21:46;12.37;;;7.00;;
42802;SDS011;28447;48.682;9.022;2024-01-15T17:24:12;11.60;;;6.13;;
42802;SDS011;28447;48.682;9.022;2024-01-15T17:26:38;11.27;;;6.97;;
42802;SDS011;28447;48.682;9.022;2024-01-15T17:29:04;15.20;;;8.40;;
42802;SDS011;28447;48.682;9.022;2024-01-15T17:31:30;12.00;;;7.43;;
42802;SDS011;28447;48.682;9.022;2024-01-15T17:33:56;11.70;;;7.00;;
42802;SDS011;28447;48.682;9.022;2024-01-15T17:36:22;10.37;;;5.77;;
42802;SDS011;28447;48.682;9.022;2024-01-15T17:38:48;19.50;;;8.10;;
42802;SDS011;28447;48.682;9.022;2024-01-15T17:41:14;17.40;;;8.00;;
42802;SDS011;28447;48.682;9.022;2024-01-15T17:43:40;20.00;;;9.90;;
42802;SDS011;28447;48.682;9.022;2024-01-15T17:46:06;15.03;;;9.03;;
42802;SDS011;28447;48.682;9.022;2024-01-15T17:48:33;13.33;;;7.17;;
42802;SDS011;28447;48.682;9.022;2024-01-15T17:51:00;14.80;;;7.97;;
42802;SDS011;28447;48.682;9.022;2024-01-15T17:53:26;12.60;;;7.13;;
42802;SDS011;28447;48.682;9.022;2024-01-15T17:55:52;12.50;;;7.40;;
42802;SDS011;28447;48.682;9.022;2024-01-15T17:58:18;13.67;;;8.10;;
42802;SDS011;28447;48.682;9.022;2024-01-15T18:00:45;12.23;;;6.63;;
42802;SDS011;28447;48.682;9.022;2024-01-15T18:03:11;15.27;;;7.73;;
42802;SDS011;28447;48.682;9.022;2024-01-15T18:05:37;13.37;;;7.40;;
42802;SDS011;28447;48.682;9.022;2024-01-15T18:08:03;11.23;;;6.60;;
42802;SDS011;28447;48.682;9.022;2024-01-15T18:10:29;13.17;;;7.60;;
42802;SDS011;28447;48.682;9.022;2024-01-15T18:12:55;14.73;;;7.77;;
42802;SDS011;28447;48.682;9.022;2024-01-15T18:15:21;14.30;;;7.20;;
42802;SDS011;28447;48.682;9.022;2024-01-15T18:17:47;15.57;;;8.10;;
42802;SDS011;28447;48.682;9.022;2024-01-15T18:20:13;12.10;;;6.87;;
42802;SDS011;28447;48.682;9.022;2024-01-15T18:22:39;15.03;;;7.33;;
42802;SDS011;28447;48.682;9.022;2024-01-15T18:25:06;14.70;;;8.50;;
42802;SDS011;28447;48.682;9.022;2024-01-15T18:27:32;11.30;;;6.00;;
42802;SDS011;28447;48.682;9.022;2024-01-15T18:29:58;12.30;;;6.60;;
42802;SDS011;28447;48.682;9.022;2024-01-15T18:32:24;10.97;;;6.43;;
42802;SDS011;28447;48.682;9.022;2024-01-15T18:34:51;10.97;;;5.97;;
42802;SDS011;28447;48.682;9.022;2024-01-15T18:37:17;12.33;;;6.80;;
42802;SDS011;28447;48.682;9.022;2024-01-15T18:39:46;11.27;;;6.20;;
42802;SDS011;28447;48.682;9.022;2024-01-15T18:42:12;9.37;;;6.00;;
42802;SDS011;28447;48.682;9.022;2024-01-15T18:44:39;15.00;;;7.00;;
42802;SDS011;28447;48.682;9.022;2024-01-15T18:47:05;28.13;;;13.40;;
42802;SDS011;28447;48.682;9.022;2024-01-15T18:49:31;9.30;;;6.27;;
42802;SDS011;28447;48.682;9.022;2024-01-15T18:51:57;12.80;;;5.90;;
42802;SDS011;28447;48.682;9.022;2024-01-15T18:54:23;12.20;;;6.50;;
42802;SDS011;28447;48.682;9.022;2024-01-15T18:56:49;8.93;;;5.17;;
42802;SDS011;28447;48.682;9.022;2024-01-15T18:59:15;9.97;;;6.03;;
42802;SDS011;28447;48.682;9.022;2024-01-15T19:01:41;14.57;;;6.00;;
42802;SDS011;28447;48.682;9.022;2024-01-15T19:04:08;15.87;;;7.17;;
42802;SDS011;28447;48.682;9.022;2024-01-15T19:06:36;10.80;;;6.40;;
42802;SDS011;28447;48.682;9.022;2024-01-15T19:09:02;11.30;;;6.30;;
42802;SDS011;28447;48.682;9.022;2024-01-15T19:11:28;12.27;;;5.77;;
42802;SDS011;28447;48.682;9.022;2024-01-15T19:13:54;11.43;;;5.97;;
42802;SDS011;28447;48.682;9.022;2024-01-15T19:16:21;8.73;;;5.20;;
42802;SDS011;28447;48.682;9.022;2024-01-15T19:18:50;11.07;;;6.53;;
42802;SDS011;28447;48.682;9.022;2024-01-15T19:21:17;10.07;;;5.43;;
42802;SDS011;28447;48.682;9.022;2024-01-15T19:23:43;10.27;;;6.17;;
42802;SDS011;28447;48.682;9.022;2024-01-15T19:26:18;8.73;;;5.33;;
42802;SDS011;28447;48.682;9.022;2024-01-15T19:28:44;15.97;;;5.57;;
42802;SDS011;28447;48.682;9.022;2024-01-15T19:31:11;7.97;;;5.40;;
42802;SDS011;28447;48.682;9.022;2024-01-15T19:33:37;15.63;;;6.03;;
42802;SDS011;28447;48.682;9.022;2024-01-15T19:36:03;9.70;;;5.60;;
42802;SDS011;28447;48.682;9.022;2024-01-15T19:38:29;8.53;;;5.60;;
42802;SDS011;28447;48.682;9.022;2024-01-15T19:40:55;7.63;;;5.10;;
42802;SDS011;28447;48.682;9.022;2024-01-15T19:43:21;8.93;;;5.60;;
42802;SDS011;28447;48.682;9.022;2024-01-15T19:45:47;10.77;;;5.87;;